createdAt,value
2023-08-01T00:02:06.311Z,18.87
2023-08-01T00:07:10.416Z,18.86
2023-08-01T00:12:14.659Z,18.86
2023-08-01T00:17:18.910Z,18.84
2023-08-01T00:22:23.637Z,18.79
2023-08-01T00:27:27.706Z,18.77
2023-08-01T00:32:32.630Z,18.75
2023-08-01T00:37:36.696Z,18.77
2023-08-01T00:42:40.596Z,18.80
2023-08-01T00:47:44.736Z,18.79
2023-08-01T00:52:52.044Z,18.81
2023-08-01T00:57:56.379Z,18.81
2023-08-01T01:03:00.571Z,18.79
2023-08-01T01:08:06.172Z,18.65
2023-08-01T01:13:10.411Z,18.50
2023-08-01T01:18:15.665Z,18.41
2023-08-01T01:23:23.160Z,18.30
2023-08-01T01:28:28.493Z,18.24
2023-08-01T01:33:33.380Z,18.19
2023-08-01T01:38:37.629Z,18.14
2023-08-01T01:43:42.601Z,18.11
2023-08-01T01:48:46.616Z,18.15
2023-08-01T01:53:50.746Z,18.19
2023-08-01T01:58:55.053Z,18.31
2023-08-01T02:03:59.317Z,18.51
2023-08-01T02:09:03.645Z,18.62
2023-08-01T02:14:07.891Z,18.69
2023-08-01T02:19:12.039Z,18.73
2023-08-01T02:24:16.375Z,18.75
2023-08-01T02:29:20.498Z,18.74
2023-08-01T02:34:24.651Z,18.73
2023-08-01T02:39:29.071Z,18.71
2023-08-01T02:44:33.543Z,18.71
2023-08-01T02:49:37.545Z,18.70
2023-08-01T02:54:41.895Z,18.68
2023-08-01T02:59:46.320Z,18.65
2023-08-01T03:04:50.464Z,18.65
2023-08-01T03:09:54.800Z,18.66
2023-08-01T03:14:59.134Z,18.67
2023-08-01T03:20:04.553Z,18.73
2023-08-01T03:25:10.073Z,18.78
2023-08-01T03:30:13.997Z,18.78
2023-08-01T03:35:18.016Z,18.80
2023-08-01T03:40:22.759Z,18.84
2023-08-01T03:45:27.027Z,18.86
2023-08-01T03:50:31.247Z,18.89
2023-08-01T03:55:35.483Z,18.93
2023-08-01T04:00:39.535Z,18.96
2023-08-01T04:05:43.944Z,18.97
2023-08-01T04:10:48.102Z,18.95
2023-08-01T04:15:52.473Z,18.82
2023-08-01T04:20:56.977Z,18.73
2023-08-01T04:26:01.322Z,18.69
2023-08-01T04:31:05.689Z,18.70
2023-08-01T04:36:10.197Z,18.73
2023-08-01T04:41:14.231Z,18.75
2023-08-01T04:46:18.454Z,18.74
2023-08-01T04:51:23.503Z,18.71
2023-08-01T04:56:29.062Z,18.73
2023-08-01T05:01:33.339Z,18.79
2023-08-01T05:06:42.725Z,18.85
2023-08-01T05:11:47.217Z,18.89
2023-08-01T05:16:51.575Z,18.91
2023-08-01T05:21:56.514Z,18.90
2023-08-01T05:27:00.639Z,18.89
2023-08-01T05:32:05.448Z,18.91
2023-08-01T05:37:09.726Z,18.94
2023-08-01T05:42:13.872Z,18.96
2023-08-01T05:47:18.220Z,19.00
2023-08-01T05:52:22.193Z,19.02
2023-08-01T05:57:27.091Z,19.00
2023-08-01T06:02:31.293Z,18.95
2023-08-01T06:07:35.558Z,18.91
2023-08-01T06:12:39.926Z,18.90
2023-08-01T06:17:43.965Z,18.84
2023-08-01T06:22:48.053Z,18.83
2023-08-01T06:27:53.647Z,18.86
2023-08-01T06:32:58.026Z,18.88
2023-08-01T06:38:02.510Z,18.90
2023-08-01T06:43:06.545Z,18.94
2023-08-01T06:48:10.788Z,19.02
2023-08-01T06:53:15.222Z,19.06
2023-08-01T06:58:19.287Z,19.14
2023-08-01T07:03:23.595Z,19.22
2023-08-01T07:08:27.635Z,19.27
2023-08-01T07:13:31.963Z,19.34
2023-08-01T07:18:36.831Z,19.37
2023-08-01T07:23:42.050Z,19.36
2023-08-01T07:28:46.013Z,19.39
2023-08-01T07:33:50.333Z,19.41
2023-08-01T07:38:57.829Z,19.38
2023-08-01T07:44:05.377Z,19.36
2023-08-01T07:49:09.293Z,19.35
2023-08-01T07:54:13.518Z,19.35
2023-08-01T07:59:17.873Z,19.36
2023-08-01T08:04:22.080Z,19.39
2023-08-01T08:09:26.137Z,19.47
2023-08-01T08:14:31.830Z,19.56
2023-08-01T08:19:36.041Z,19.66
2023-08-01T08:24:40.385Z,19.80
2023-08-01T08:29:44.522Z,20.00
2023-08-01T08:34:49.050Z,20.04
2023-08-01T08:39:53.245Z,19.99
2023-08-01T08:45:02.214Z,20.00
2023-08-01T08:50:10.260Z,19.95
2023-08-01T08:55:15.393Z,19.83
2023-08-01T09:00:21.842Z,19.76
2023-08-01T09:05:36.739Z,19.75
2023-08-01T09:10:40.869Z,19.68
2023-08-01T09:15:48.109Z,19.66
2023-08-01T09:20:52.475Z,19.65
2023-08-01T09:25:59.234Z,19.66
2023-08-01T09:31:04.431Z,19.74
2023-08-01T09:36:10.432Z,19.84
2023-08-01T09:41:20.110Z,19.91
2023-08-01T09:46:26.083Z,20.00
2023-08-01T09:51:30.190Z,20.12
2023-08-01T09:56:36.031Z,20.12
2023-08-01T10:01:43.365Z,20.13
2023-08-01T10:06:53.214Z,20.15
2023-08-01T10:11:59.952Z,20.09
2023-08-01T10:17:05.296Z,19.94
2023-08-01T10:22:11.567Z,19.85
2023-08-01T10:27:21.977Z,19.86
2023-08-01T10:32:39.232Z,19.98
2023-08-01T10:37:50.509Z,20.00
2023-08-01T10:42:54.668Z,19.83
2023-08-01T10:48:11.173Z,19.70
2023-08-01T10:53:15.900Z,19.62
2023-08-01T10:58:20.137Z,19.45
2023-08-01T11:03:24.039Z,19.35
2023-08-01T11:08:41.088Z,19.27
2023-08-01T11:13:55.060Z,19.25
2023-08-01T11:18:59.317Z,19.18
2023-08-01T11:24:09.177Z,19.08
2023-08-01T11:29:14.788Z,19.12
2023-08-01T11:34:18.667Z,19.35
2023-08-01T11:39:23.954Z,19.61
2023-08-01T11:44:28.063Z,19.72
2023-08-01T11:49:32.606Z,19.85
2023-08-01T11:54:47.336Z,19.92
2023-08-01T11:59:55.682Z,19.81
2023-08-01T12:05:00.071Z,19.82
2023-08-01T12:10:04.999Z,20.04
2023-08-01T12:15:09.576Z,20.21
2023-08-01T12:20:14.108Z,20.27
2023-08-01T12:25:18.236Z,20.33
2023-08-01T12:30:22.762Z,20.39
2023-08-01T12:35:27.117Z,20.51
2023-08-01T12:40:31.659Z,20.66
2023-08-01T12:45:35.906Z,20.69
2023-08-01T12:50:40.435Z,20.62
2023-08-01T12:55:46.957Z,20.53
2023-08-01T13:00:51.017Z,20.54
2023-08-01T13:05:55.404Z,20.54
2023-08-01T13:11:01.889Z,20.49
2023-08-01T13:16:08.015Z,20.55
2023-08-01T13:21:13.122Z,20.55
2023-08-01T13:26:17.892Z,20.53
2023-08-01T13:31:22.235Z,20.65
2023-08-01T13:36:26.652Z,20.81
2023-08-01T13:41:30.752Z,20.94
2023-08-01T13:46:34.820Z,20.98
2023-08-01T13:51:40.359Z,20.96
2023-08-01T13:56:44.990Z,20.87
2023-08-01T14:01:50.533Z,20.81
2023-08-01T14:06:54.913Z,20.85
2023-08-01T14:12:00.870Z,21.00
2023-08-01T14:17:05.862Z,21.04
2023-08-01T14:22:10.359Z,21.00
2023-08-01T14:27:14.455Z,21.06
2023-08-01T14:32:21.420Z,21.11
2023-08-01T14:37:27.632Z,21.16
2023-08-01T14:42:32.091Z,21.32
2023-08-01T14:47:39.518Z,21.63
2023-08-01T14:52:44.245Z,21.98
2023-08-01T14:57:48.264Z,21.93
2023-08-01T15:02:54.092Z,21.68
2023-08-01T15:07:58.281Z,21.43
2023-08-01T15:13:02.846Z,21.26
2023-08-01T15:18:07.578Z,20.97
2023-08-01T15:23:12.014Z,20.67
2023-08-01T15:28:16.136Z,20.52
2023-08-01T15:33:21.605Z,20.49
2023-08-01T15:38:26.033Z,20.49
2023-08-01T15:43:32.023Z,20.44
2023-08-01T15:48:37.898Z,20.39
2023-08-01T15:53:42.148Z,20.36
2023-08-01T15:58:46.880Z,20.35
2023-08-01T16:03:51.431Z,20.51
2023-08-01T16:08:55.766Z,20.73
2023-08-01T16:14:00.821Z,20.92
2023-08-01T16:19:05.476Z,21.04
2023-08-01T16:24:10.151Z,21.12
2023-08-01T16:29:14.614Z,21.11
2023-08-01T16:34:18.941Z,21.08
2023-08-01T16:39:23.223Z,21.00
2023-08-01T16:44:27.985Z,20.95
2023-08-01T16:49:32.817Z,20.92
2023-08-01T16:54:37.179Z,20.88
2023-08-01T16:59:42.226Z,20.84
2023-08-01T17:04:48.143Z,20.79
2023-08-01T17:09:52.942Z,20.75
2023-08-01T17:14:58.431Z,20.71
2023-08-01T17:20:05.226Z,20.64
2023-08-01T17:25:10.101Z,20.55
2023-08-01T17:30:14.424Z,20.49
2023-08-01T17:35:18.963Z,20.43
2023-08-01T17:40:24.263Z,20.37
2023-08-01T17:45:28.866Z,20.12
2023-08-01T17:50:32.978Z,19.73
2023-08-01T17:55:37.338Z,19.45
2023-08-01T18:00:41.677Z,19.23
2023-08-01T18:05:46.067Z,19.06
2023-08-01T18:10:50.962Z,19.01
2023-08-01T18:15:55.594Z,18.95
2023-08-01T18:21:02.393Z,18.90
2023-08-01T18:26:07.956Z,18.77
2023-08-01T18:31:12.852Z,18.61
2023-08-01T18:36:27.494Z,18.48
2023-08-01T18:41:31.754Z,18.44
2023-08-01T18:46:35.981Z,18.37
2023-08-01T18:51:40.209Z,18.27
2023-08-01T18:56:44.538Z,18.16
2023-08-01T19:01:49.307Z,18.04
2023-08-01T19:06:53.535Z,18.00
2023-08-01T19:11:59.402Z,17.98
2023-08-01T19:17:04.041Z,18.00
2023-08-01T19:22:10.305Z,17.94
2023-08-01T19:27:15.445Z,17.84
2023-08-01T19:32:21.350Z,17.80
2023-08-01T19:37:25.679Z,17.74
2023-08-01T19:42:29.929Z,17.68
2023-08-01T19:47:34.333Z,17.66
2023-08-01T19:52:40.012Z,17.61
2023-08-01T19:57:44.182Z,17.63
2023-08-01T20:02:48.724Z,17.60
2023-08-01T20:07:53.317Z,17.63
2023-08-01T20:12:58.022Z,17.66
2023-08-01T20:18:02.625Z,17.68
2023-08-01T20:23:07.455Z,17.68
2023-08-01T20:28:12.231Z,17.70
2023-08-01T20:33:17.880Z,17.75
2023-08-01T20:38:23.103Z,17.78
2023-08-01T20:43:30.416Z,17.78
2023-08-01T20:48:35.345Z,17.78
2023-08-01T20:53:39.621Z,17.79
2023-08-01T20:58:43.833Z,17.83
2023-08-01T21:03:48.067Z,17.83
2023-08-01T21:09:03.314Z,17.83
2023-08-01T21:14:10.865Z,17.83
2023-08-01T21:19:15.198Z,17.83
2023-08-01T21:24:19.548Z,17.82
2023-08-01T21:29:24.801Z,17.83
2023-08-01T21:34:28.937Z,17.85
2023-08-01T21:39:35.107Z,17.84
2023-08-01T21:44:39.735Z,17.82
2023-08-01T21:49:43.794Z,17.80
2023-08-01T21:54:49.203Z,17.77
2023-08-01T21:59:53.294Z,17.72
2023-08-01T22:04:57.628Z,17.69
2023-08-01T22:10:03.542Z,17.65
2023-08-01T22:15:09.277Z,17.60
2023-08-01T22:20:13.719Z,17.56
2023-08-01T22:25:17.990Z,17.52
2023-08-01T22:30:22.342Z,17.47
2023-08-01T22:35:29.986Z,17.49
2023-08-01T22:40:36.070Z,17.47
2023-08-01T22:45:43.672Z,17.47
2023-08-01T22:50:49.539Z,17.45
2023-08-01T22:55:54.227Z,17.44
2023-08-01T23:00:58.599Z,17.43
2023-08-01T23:06:03.058Z,17.38
2023-08-01T23:11:07.868Z,17.35
2023-08-01T23:16:15.245Z,17.34
2023-08-01T23:21:19.009Z,17.34
2023-08-01T23:26:22.814Z,17.31
2023-08-01T23:31:27.103Z,17.29
2023-08-01T23:36:31.490Z,17.30
2023-08-01T23:41:35.834Z,17.32
2023-08-01T23:46:40.386Z,17.34
2023-08-01T23:51:44.705Z,17.35
2023-08-01T23:56:48.744Z,17.34
